sensor_id;sensor_type;location;lat;lon;timestamp;P1;durP1;ratioP1;P2;durP2;ratioP2
69837;SDS011;57135;51.992;4.476;2023-09-07T00:00:47;14.26;;;14.26;;
69837;SDS011;57135;51.992;4.476;2023-09-07T00:03:13;14.85;;;14.84;;
69837;SDS011;57135;51.992;4.476;2023-09-07T00:05:38;14.52;;;14.51;;
69837;SDS011;57135;51.992;4.476;2023-09-07T00:08:04;14.41;;;14.40;;
69837;SDS011;57135;51.992;4.476;2023-09-07T00:10:33;14.74;;;14.73;;
69837;SDS011;57135;51.992;4.476;2023-09-07T00:13:00;14.55;;;14.52;;
69837;SDS011;57135;51.992;4.476;2023-09-07T00:15:27;15.08;;;14.91;;
69837;SDS011;57135;51.992;4.476;2023-09-07T00:17:53;14.69;;;14.64;;
69837;SDS011;57135;51.992;4.476;2023-09-07T00:20:19;14.52;;;14.52;;
69837;SDS011;57135;51.992;4.476;2023-09-07T00:22:46;14.77;;;14.75;;
69837;SDS011;57135;51.992;4.476;2023-09-07T00:25:12;14.93;;;14.90;;
69837;SDS011;57135;51.992;4.476;2023-09-07T00:27:39;14.34;;;14.33;;
69837;SDS011;57135;51.992;4.476;2023-09-07T00:30:04;14.43;;;14.43;;
69837;SDS011;57135;51.992;4.476;2023-09-07T00:32:32;14.38;;;14.37;;
69837;SDS011;57135;51.992;4.476;2023-09-07T00:34:57;14.11;;;14.08;;
69837;SDS011;57135;51.992;4.476;2023-09-07T00:37:23;14.06;;;14.06;;
69837;SDS011;57135;51.992;4.476;2023-09-07T00:39:48;14.95;;;14.94;;
69837;SDS011;57135;51.992;4.476;2023-09-07T00:42:14;14.31;;;14.30;;
69837;SDS011;57135;51.992;4.476;2023-09-07T00:44:39;14.55;;;14.53;;
69837;SDS011;57135;51.992;4.476;2023-09-07T00:47:05;13.92;;;13.92;;
69837;SDS011;57135;51.992;4.476;2023-09-07T00:49:30;14.24;;;14.24;;
69837;SDS011;57135;51.992;4.476;2023-09-07T00:51:56;14.77;;;14.74;;
69837;SDS011;57135;51.992;4.476;2023-09-07T00:54:22;14.92;;;14.88;;
69837;SDS011;57135;51.992;4.476;2023-09-07T00:56:48;14.58;;;14.48;;
69837;SDS011;57135;51.992;4.476;2023-09-07T00:59:14;14.78;;;14.78;;
69837;SDS011;57135;51.992;4.476;2023-09-07T01:01:40;14.71;;;14.69;;
69837;SDS011;57135;51.992;4.476;2023-09-07T01:04:07;14.77;;;14.75;;
69837;SDS011;57135;51.992;4.476;2023-09-07T01:06:39;14.93;;;14.90;;
69837;SDS011;57135;51.992;4.476;2023-09-07T01:09:11;15.05;;;15.05;;
69837;SDS011;57135;51.992;4.476;2023-09-07T01:11:40;15.07;;;15.07;;
69837;SDS011;57135;51.992;4.476;2023-09-07T01:14:06;15.39;;;15.31;;
69837;SDS011;57135;51.992;4.476;2023-09-07T01:16:31;14.74;;;14.72;;
69837;SDS011;57135;51.992;4.476;2023-09-07T01:19:01;15.11;;;15.11;;
69837;SDS011;57135;51.992;4.476;2023-09-07T01:21:27;15.68;;;15.68;;
69837;SDS011;57135;51.992;4.476;2023-09-07T01:23:58;15.75;;;15.75;;
69837;SDS011;57135;51.992;4.476;2023-09-07T01:26:23;15.58;;;15.58;;
69837;SDS011;57135;51.992;4.476;2023-09-07T01:28:49;15.85;;;15.85;;
69837;SDS011;57135;51.992;4.476;2023-09-07T01:31:15;16.09;;;16.08;;
69837;SDS011;57135;51.992;4.476;2023-09-07T01:33:40;16.36;;;16.23;;
69837;SDS011;57135;51.992;4.476;2023-09-07T01:36:06;15.58;;;15.44;;
69837;SDS011;57135;51.992;4.476;2023-09-07T01:38:32;15.02;;;15.00;;
69837;SDS011;57135;51.992;4.476;2023-09-07T01:40:57;15.24;;;15.24;;
69837;SDS011;57135;51.992;4.476;2023-09-07T01:43:22;14.98;;;14.98;;
69837;SDS011;57135;51.992;4.476;2023-09-07T01:45:48;15.67;;;15.64;;
69837;SDS011;57135;51.992;4.476;2023-09-07T01:48:14;14.82;;;14.81;;
69837;SDS011;57135;51.992;4.476;2023-09-07T01:50:40;14.85;;;14.84;;
69837;SDS011;57135;51.992;4.476;2023-09-07T01:53:05;14.56;;;14.56;;
69837;SDS011;57135;51.992;4.476;2023-09-07T01:55:31;15.00;;;15.00;;
69837;SDS011;57135;51.992;4.476;2023-09-07T01:57:57;15.08;;;15.07;;
69837;SDS011;57135;51.992;4.476;2023-09-07T02:00:22;14.84;;;14.80;;
69837;SDS011;57135;51.992;4.476;2023-09-07T02:02:48;14.86;;;14.81;;
69837;SDS011;57135;51.992;4.476;2023-09-07T02:05:13;14.81;;;14.81;;
69837;SDS011;57135;51.992;4.476;2023-09-07T02:07:39;15.82;;;15.78;;
69837;SDS011;57135;51.992;4.476;2023-09-07T02:10:04;15.21;;;15.21;;
69837;SDS011;57135;51.992;4.476;2023-09-07T02:12:30;15.59;;;15.59;;
69837;SDS011;57135;51.992;4.476;2023-09-07T02:14:56;15.71;;;15.66;;
69837;SDS011;57135;51.992;4.476;2023-09-07T02:17:21;15.99;;;15.94;;
69837;SDS011;57135;51.992;4.476;2023-09-07T02:19:47;16.96;;;16.96;;
69837;SDS011;57135;51.992;4.476;2023-09-07T02:22:13;18.42;;;18.33;;
69837;SDS011;57135;51.992;4.476;2023-09-07T02:24:38;17.13;;;17.11;;
69837;SDS011;57135;51.992;4.476;2023-09-07T02:27:04;17.50;;;17.35;;
69837;SDS011;57135;51.992;4.476;2023-09-07T02:29:29;18.31;;;17.86;;
69837;SDS011;57135;51.992;4.476;2023-09-07T02:31:55;17.63;;;17.56;;
69837;SDS011;57135;51.992;4.476;2023-09-07T02:34:21;18.17;;;17.93;;
69837;SDS011;57135;51.992;4.476;2023-09-07T02:36:47;18.09;;;17.73;;
69837;SDS011;57135;51.992;4.476;2023-09-07T02:39:12;17.86;;;17.84;;
69837;SDS011;57135;51.992;4.476;2023-09-07T02:41:38;18.42;;;18.38;;
69837;SDS011;57135;51.992;4.476;2023-09-07T02:44:04;18.51;;;18.51;;
69837;SDS011;57135;51.992;4.476;2023-09-07T02:46:30;18.73;;;18.71;;
69837;SDS011;57135;51.992;4.476;2023-09-07T02:48:58;18.27;;;18.18;;
69837;SDS011;57135;51.992;4.476;2023-09-07T02:51:24;18.35;;;18.33;;
69837;SDS011;57135;51.992;4.476;2023-09-07T02:53:50;19.20;;;19.20;;
69837;SDS011;57135;51.992;4.476;2023-09-07T02:56:16;19.11;;;19.11;;
69837;SDS011;57135;51.992;4.476;2023-09-07T02:58:42;20.02;;;19.82;;
69837;SDS011;57135;51.992;4.476;2023-09-07T03:01:07;19.74;;;19.24;;
69837;SDS011;57135;51.992;4.476;2023-09-07T03:03:36;18.46;;;18.46;;
69837;SDS011;57135;51.992;4.476;2023-09-07T03:06:09;18.94;;;18.85;;
69837;SDS011;57135;51.992;4.476;2023-09-07T03:08:36;19.21;;;19.18;;
69837;SDS011;57135;51.992;4.476;2023-09-07T03:11:05;18.53;;;18.52;;
69837;SDS011;57135;51.992;4.476;2023-09-07T03:13:31;19.68;;;19.58;;
69837;SDS011;57135;51.992;4.476;2023-09-07T03:15:57;19.45;;;19.42;;
69837;SDS011;57135;51.992;4.476;2023-09-07T03:18:23;18.69;;;18.54;;
69837;SDS011;57135;51.992;4.476;2023-09-07T03:20:49;20.03;;;19.67;;
69837;SDS011;57135;51.992;4.476;2023-09-07T03:23:16;19.75;;;19.53;;
69837;SDS011;57135;51.992;4.476;2023-09-07T03:25:41;19.25;;;19.03;;
69837;SDS011;57135;51.992;4.476;2023-09-07T03:28:07;19.35;;;19.31;;
69837;SDS011;57135;51.992;4.476;2023-09-07T03:30:32;19.12;;;18.72;;
69837;SDS011;57135;51.992;4.476;2023-09-07T03:32:58;19.44;;;19.28;;
69837;SDS011;57135;51.992;4.476;2023-09-07T03:35:23;19.51;;;19.51;;
69837;SDS011;57135;51.992;4.476;2023-09-07T03:37:49;19.75;;;19.63;;
69837;SDS011;57135;51.992;4.476;2023-09-07T03:40:15;20.38;;;20.37;;
69837;SDS011;57135;51.992;4.476;2023-09-07T03:42:40;20.08;;;19.89;;
69837;SDS011;57135;51.992;4.476;2023-09-07T03:45:07;20.65;;;20.38;;
69837;SDS011;57135;51.992;4.476;2023-09-07T03:47:32;19.53;;;19.35;;
69837;SDS011;57135;51.992;4.476;2023-09-07T03:49:58;19.70;;;19.68;;
69837;SDS011;57135;51.992;4.476;2023-09-07T03:52:24;19.46;;;19.46;;
69837;SDS011;57135;51.992;4.476;2023-09-07T03:54:51;20.15;;;20.15;;
69837;SDS011;57135;51.992;4.476;2023-09-07T03:57:19;19.91;;;19.89;;
69837;SDS011;57135;51.992;4.476;2023-09-07T03:59:45;20.86;;;20.54;;
69837;SDS011;57135;51.992;4.476;2023-09-07T04:02:11;21.21;;;20.98;;
69837;SDS011;57135;51.992;4.476;2023-09-07T04:04:37;20.35;;;20.17;;
69837;SDS011;57135;51.992;4.476;2023-09-07T04:07:03;20.80;;;20.53;;
69837;SDS011;57135;51.992;4.476;2023-09-07T04:09:28;21.17;;;21.08;;
69837;SDS011;57135;51.992;4.476;2023-09-07T04:11:54;22.02;;;21.93;;
69837;SDS011;57135;51.992;4.476;2023-09-07T04:14:19;21.83;;;21.73;;
69837;SDS011;57135;51.992;4.476;2023-09-07T04:16:45;21.54;;;21.47;;
69837;SDS011;57135;51.992;4.476;2023-09-07T04:19:10;21.94;;;21.63;;
69837;SDS011;57135;51.992;4.476;2023-09-07T04:21:36;22.92;;;22.49;;
69837;SDS011;57135;51.992;4.476;2023-09-07T04:24:04;21.36;;;21.13;;
69837;SDS011;57135;51.992;4.476;2023-09-07T04:26:30;21.57;;;21.26;;
69837;SDS011;57135;51.992;4.476;2023-09-07T04:28:55;22.23;;;22.11;;
69837;SDS011;57135;51.992;4.476;2023-09-07T04:31:21;22.96;;;22.90;;
69837;SDS011;57135;51.992;4.476;2023-09-07T04:33:46;22.76;;;22.53;;
69837;SDS011;57135;51.992;4.476;2023-09-07T04:36:13;22.11;;;22.05;;
69837;SDS011;57135;51.992;4.476;2023-09-07T04:38:40;23.02;;;22.65;;
69837;SDS011;57135;51.992;4.476;2023-09-07T04:41:06;22.53;;;22.32;;
69837;SDS011;57135;51.992;4.476;2023-09-07T04:43:32;23.52;;;23.12;;
69837;SDS011;57135;51.992;4.476;2023-09-07T04:45:57;23.06;;;22.85;;
69837;SDS011;57135;51.992;4.476;2023-09-07T04:48:23;22.96;;;22.67;;
69837;SDS011;57135;51.992;4.476;2023-09-07T04:50:48;23.50;;;23.24;;
69837;SDS011;57135;51.992;4.476;2023-09-07T04:53:13;23.28;;;23.03;;
69837;SDS011;57135;51.992;4.476;2023-09-07T04:55:42;23.47;;;23.29;;
69837;SDS011;57135;51.992;4.476;2023-09-07T04:58:09;22.95;;;22.82;;
69837;SDS011;57135;51.992;4.476;2023-09-07T05:00:34;24.13;;;23.81;;
69837;SDS011;57135;51.992;4.476;2023-09-07T05:03:00;23.00;;;22.76;;
69837;SDS011;57135;51.992;4.476;2023-09-07T05:05:25;22.70;;;22.57;;
69837;SDS011;57135;51.992;4.476;2023-09-07T05:07:51;22.37;;;22.10;;
69837;SDS011;57135;51.992;4.476;2023-09-07T05:10:16;23.19;;;22.67;;
69837;SDS011;57135;51.992;4.476;2023-09-07T05:12:42;24.06;;;23.69;;
69837;SDS011;57135;51.992;4.476;2023-09-07T05:15:07;23.95;;;23.75;;
69837;SDS011;57135;51.992;4.476;2023-09-07T05:17:33;25.12;;;24.68;;
69837;SDS011;57135;51.992;4.476;2023-09-07T05:19:58;24.43;;;24.10;;
69837;SDS011;57135;51.992;4.476;2023-09-07T05:22:24;24.76;;;24.45;;
69837;SDS011;57135;51.992;4.476;2023-09-07T05:24:51;24.03;;;23.84;;
69837;SDS011;57135;51.992;4.476;2023-09-07T05:27:16;24.58;;;24.40;;
69837;SDS011;57135;51.992;4.476;2023-09-07T05:29:42;24.71;;;24.37;;
69837;SDS011;57135;51.992;4.476;2023-09-07T05:32:09;24.85;;;24.42;;
69837;SDS011;57135;51.992;4.476;2023-09-07T05:34:35;25.37;;;24.95;;
69837;SDS011;57135;51.992;4.476;2023-09-07T05:37:00;25.06;;;24.60;;
69837;SDS011;57135;51.992;4.476;2023-09-07T05:39:26;24.97;;;24.57;;
69837;SDS011;57135;51.992;4.476;2023-09-07T05:41:51;25.58;;;25.04;;
69837;SDS011;57135;51.992;4.476;2023-09-07T05:44:17;24.67;;;24.45;;
69837;SDS011;57135;51.992;4.476;2023-09-07T05:46:42;25.15;;;24.96;;
69837;SDS011;57135;51.992;4.476;2023-09-07T05:49:08;25.20;;;25.12;;
69837;SDS011;57135;51.992;4.476;2023-09-07T05:51:33;24.77;;;24.55;;
69837;SDS011;57135;51.992;4.476;2023-09-07T05:53:59;25.11;;;24.88;;
69837;SDS011;57135;51.992;4.476;2023-09-07T05:56:26;25.29;;;25.13;;
69837;SDS011;57135;51.992;4.476;2023-09-07T05:58:51;25.33;;;25.01;;
69837;SDS011;57135;51.992;4.476;2023-09-07T06:01:17;24.36;;;24.22;;
69837;SDS011;57135;51.992;4.476;2023-09-07T06:03:42;25.92;;;25.87;;
69837;SDS011;57135;51.992;4.476;2023-09-07T06:06:08;27.15;;;26.96;;
69837;SDS011;57135;51.992;4.476;2023-09-07T06:08:33;27.50;;;27.40;;
69837;SDS011;57135;51.992;4.476;2023-09-07T06:10:59;24.17;;;23.82;;
69837;SDS011;57135;51.992;4.476;2023-09-07T06:13:25;22.87;;;22.70;;
69837;SDS011;57135;51.992;4.476;2023-09-07T06:15:50;24.78;;;24.42;;
69837;SDS011;57135;51.992;4.476;2023-09-07T06:18:16;23.54;;;23.49;;
69837;SDS011;57135;51.992;4.476;2023-09-07T06:20:41;24.70;;;24.39;;
69837;SDS011;57135;51.992;4.476;2023-09-07T06:23:06;25.34;;;25.26;;
69837;SDS011;57135;51.992;4.476;2023-09-07T06:25:32;25.77;;;25.62;;
69837;SDS011;57135;51.992;4.476;2023-09-07T06:27:57;25.46;;;25.44;;
69837;SDS011;57135;51.992;4.476;2023-09-07T06:30:23;25.31;;;25.02;;
69837;SDS011;57135;51.992;4.476;2023-09-07T06:32:48;25.30;;;25.06;;
69837;SDS011;57135;51.992;4.476;2023-09-07T06:35:16;24.58;;;24.58;;
69837;SDS011;57135;51.992;4.476;2023-09-07T06:37:43;25.15;;;24.97;;
69837;SDS011;57135;51.992;4.476;2023-09-07T06:40:09;24.93;;;24.89;;
69837;SDS011;57135;51.992;4.476;2023-09-07T06:42:35;25.71;;;25.30;;
69837;SDS011;57135;51.992;4.476;2023-09-07T06:45:03;24.54;;;24.53;;
69837;SDS011;57135;51.992;4.476;2023-09-07T06:47:30;25.18;;;25.01;;
69837;SDS011;57135;51.992;4.476;2023-09-07T06:49:56;25.98;;;25.84;;
69837;SDS011;57135;51.992;4.476;2023-09-07T06:52:21;24.42;;;24.23;;
69837;SDS011;57135;51.992;4.476;2023-09-07T06:54:47;23.80;;;23.76;;
69837;SDS011;57135;51.992;4.476;2023-09-07T06:57:16;23.57;;;23.48;;
69837;SDS011;57135;51.992;4.476;2023-09-07T06:59:42;22.95;;;22.90;;
69837;SDS011;57135;51.992;4.476;2023-09-07T07:02:08;23.42;;;23.41;;
69837;SDS011;57135;51.992;4.476;2023-09-07T07:04:34;22.72;;;22.72;;
69837;SDS011;57135;51.992;4.476;2023-09-07T07:07:00;23.24;;;23.21;;
69837;SDS011;57135;51.992;4.476;2023-09-07T07:09:29;22.44;;;22.41;;
69837;SDS011;57135;51.992;4.476;2023-09-07T07:11:55;22.01;;;21.89;;
69837;SDS011;57135;51.992;4.476;2023-09-07T07:14:21;28.81;;;28.70;;
69837;SDS011;57135;51.992;4.476;2023-09-07T07:16:46;23.00;;;22.96;;
69837;SDS011;57135;51.992;4.476;2023-09-07T07:19:12;21.49;;;21.48;;
69837;SDS011;57135;51.992;4.476;2023-09-07T07:21:38;21.43;;;21.43;;
69837;SDS011;57135;51.992;4.476;2023-09-07T07:24:03;22.29;;;22.25;;
69837;SDS011;57135;51.992;4.476;2023-09-07T07:26:31;21.49;;;21.41;;
69837;SDS011;57135;51.992;4.476;2023-09-07T07:28:57;20.99;;;20.98;;
69837;SDS011;57135;51.992;4.476;2023-09-07T07:31:22;20.42;;;20.37;;
69837;SDS011;57135;51.992;4.476;2023-09-07T07:33:48;22.07;;;22.05;;
69837;SDS011;57135;51.992;4.476;2023-09-07T07:36:14;20.36;;;20.30;;
69837;SDS011;57135;51.992;4.476;2023-09-07T07:38:39;20.52;;;20.26;;
69837;SDS011;57135;51.992;4.476;2023-09-07T07:41:05;19.89;;;19.57;;
69837;SDS011;57135;51.992;4.476;2023-09-07T07:43:32;19.08;;;19.08;;
69837;SDS011;57135;51.992;4.476;2023-09-07T07:45:57;18.91;;;18.91;;
69837;SDS011;57135;51.992;4.476;2023-09-07T07:48:24;30.49;;;30.33;;
69837;SDS011;57135;51.992;4.476;2023-09-07T07:50:49;75.25;;;75.07;;
69837;SDS011;57135;51.992;4.476;2023-09-07T07:53:15;22.29;;;22.07;;
69837;SDS011;57135;51.992;4.476;2023-09-07T07:55:44;30.36;;;30.14;;
69837;SDS011;57135;51.992;4.476;2023-09-07T07:58:09;27.74;;;27.10;;
69837;SDS011;57135;51.992;4.476;2023-09-07T08:00:38;38.31;;;37.55;;
69837;SDS011;57135;51.992;4.476;2023-09-07T08:03:06;22.07;;;21.94;;
69837;SDS011;57135;51.992;4.476;2023-09-07T08:05:32;49.89;;;47.62;;
69837;SDS011;57135;51.992;4.476;2023-09-07T08:07:58;18.27;;;18.03;;
69837;SDS011;57135;51.992;4.476;2023-09-07T08:10:24;18.35;;;18.24;;
69837;SDS011;57135;51.992;4.476;2023-09-07T08:12:53;16.95;;;16.94;;
69837;SDS011;57135;51.992;4.476;2023-09-07T08:15:20;16.11;;;16.09;;
69837;SDS011;57135;51.992;4.476;2023-09-07T08:17:47;16.29;;;16.28;;
69837;SDS011;57135;51.992;4.476;2023-09-07T08:20:13;15.13;;;15.13;;
69837;SDS011;57135;51.992;4.476;2023-09-07T08:22:40;15.09;;;15.08;;
69837;SDS011;57135;51.992;4.476;2023-09-07T08:25:10;17.72;;;17.66;;
69837;SDS011;57135;51.992;4.476;2023-09-07T08:27:39;15.15;;;15.15;;
69837;SDS011;57135;51.992;4.476;2023-09-07T08:30:10;16.65;;;16.62;;
69837;SDS011;57135;51.992;4.476;2023-09-07T08:32:37;20.10;;;20.04;;
69837;SDS011;57135;51.992;4.476;2023-09-07T08:35:04;15.85;;;15.84;;
69837;SDS011;57135;51.992;4.476;2023-09-07T08:37:33;16.99;;;16.95;;
69837;SDS011;57135;51.992;4.476;2023-09-07T08:39:59;16.23;;;16.23;;
69837;SDS011;57135;51.992;4.476;2023-09-07T08:42:24;17.63;;;17.63;;
69837;SDS011;57135;51.992;4.476;2023-09-07T08:44:50;14.52;;;14.52;;
69837;SDS011;57135;51.992;4.476;2023-09-07T08:47:18;14.31;;;14.31;;
69837;SDS011;57135;51.992;4.476;2023-09-07T08:49:45;31.09;;;31.08;;
69837;SDS011;57135;51.992;4.476;2023-09-07T08:52:11;22.77;;;22.72;;
69837;SDS011;57135;51.992;4.476;2023-09-07T08:54:39;15.00;;;15.00;;
69837;SDS011;57135;51.992;4.476;2023-09-07T08:57:07;13.70;;;13.70;;
69837;SDS011;57135;51.992;4.476;2023-09-07T08:59:34;14.68;;;14.60;;
69837;SDS011;57135;51.992;4.476;2023-09-07T09:02:00;40.52;;;40.02;;
69837;SDS011;57135;51.992;4.476;2023-09-07T09:04:26;105.29;;;104.78;;
69837;SDS011;57135;51.992;4.476;2023-09-07T09:06:53;15.41;;;15.41;;
69837;SDS011;57135;51.992;4.476;2023-09-07T09:09:22;17.82;;;17.81;;
69837;SDS011;57135;51.992;4.476;2023-09-07T09:11:49;14.30;;;14.29;;
69837;SDS011;57135;51.992;4.476;2023-09-07T09:14:18;14.90;;;14.90;;
69837;SDS011;57135;51.992;4.476;2023-09-07T09:16:48;14.64;;;14.62;;
69837;SDS011;57135;51.992;4.476;2023-09-07T09:19:16;13.89;;;13.89;;
69837;SDS011;57135;51.992;4.476;2023-09-07T09:21:44;16.61;;;16.57;;
69837;SDS011;57135;51.992;4.476;2023-09-07T09:24:11;21.84;;;21.79;;
69837;SDS011;57135;51.992;4.476;2023-09-07T09:26:37;15.99;;;15.98;;
69837;SDS011;57135;51.992;4.476;2023-09-07T09:29:03;27.92;;;26.20;;
69837;SDS011;57135;51.992;4.476;2023-09-07T09:31:29;31.20;;;29.11;;
69837;SDS011;57135;51.992;4.476;2023-09-07T09:33:55;14.47;;;14.47;;
69837;SDS011;57135;51.992;4.476;2023-09-07T09:36:20;14.20;;;14.17;;
69837;SDS011;57135;51.992;4.476;2023-09-07T09:38:47;13.11;;;13.04;;
69837;SDS011;57135;51.992;4.476;2023-09-07T09:41:15;12.60;;;12.60;;
69837;SDS011;57135;51.992;4.476;2023-09-07T09:43:42;12.05;;;12.03;;
69837;SDS011;57135;51.992;4.476;2023-09-07T09:46:09;12.08;;;12.05;;
69837;SDS011;57135;51.992;4.476;2023-09-07T09:48:35;11.99;;;11.99;;
69837;SDS011;57135;51.992;4.476;2023-09-07T09:51:01;12.92;;;12.91;;
69837;SDS011;57135;51.992;4.476;2023-09-07T09:53:29;12.02;;;12.02;;
69837;SDS011;57135;51.992;4.476;2023-09-07T09:55:54;11.94;;;11.93;;
69837;SDS011;57135;51.992;4.476;2023-09-07T09:58:20;11.92;;;11.79;;
69837;SDS011;57135;51.992;4.476;2023-09-07T10:00:46;11.44;;;11.44;;
69837;SDS011;57135;51.992;4.476;2023-09-07T10:06:07;11.81;;;11.79;;
69837;SDS011;57135;51.992;4.476;2023-09-07T10:08:35;11.88;;;11.88;;
69837;SDS011;57135;51.992;4.476;2023-09-07T10:11:01;11.89;;;11.89;;
69837;SDS011;57135;51.992;4.476;2023-09-07T10:13:33;11.64;;;11.63;;
69837;SDS011;57135;51.992;4.476;2023-09-07T10:16:02;10.65;;;10.65;;
69837;SDS011;57135;51.992;4.476;2023-09-07T10:18:38;10.62;;;10.62;;
69837;SDS011;57135;51.992;4.476;2023-09-07T10:21:04;10.13;;;10.13;;
69837;SDS011;57135;51.992;4.476;2023-09-07T10:23:37;9.99;;;9.99;;
69837;SDS011;57135;51.992;4.476;2023-09-07T10:26:09;10.48;;;10.48;;
69837;SDS011;57135;51.992;4.476;2023-09-07T10:28:40;9.98;;;9.98;;
69837;SDS011;57135;51.992;4.476;2023-09-07T10:31:12;9.81;;;9.81;;
69837;SDS011;57135;51.992;4.476;2023-09-07T10:33:39;9.26;;;9.26;;
69837;SDS011;57135;51.992;4.476;2023-09-07T10:36:04;9.36;;;9.36;;
69837;SDS011;57135;51.992;4.476;2023-09-07T10:38:31;9.57;;;9.57;;
69837;SDS011;57135;51.992;4.476;2023-09-07T10:40:58;10.08;;;10.08;;
69837;SDS011;57135;51.992;4.476;2023-09-07T10:43:26;9.60;;;9.60;;
69837;SDS011;57135;51.992;4.476;2023-09-07T10:45:53;8.89;;;8.89;;
69837;SDS011;57135;51.992;4.476;2023-09-07T10:48:19;9.21;;;9.21;;
69837;SDS011;57135;51.992;4.476;2023-09-07T10:50:46;8.84;;;8.84;;
69837;SDS011;57135;51.992;4.476;2023-09-07T10:53:13;9.88;;;9.88;;
69837;SDS011;57135;51.992;4.476;2023-09-07T10:55:39;9.92;;;9.92;;
69837;SDS011;57135;51.992;4.476;2023-09-07T10:58:08;9.72;;;9.72;;
69837;SDS011;57135;51.992;4.476;2023-09-07T11:00:37;9.38;;;9.38;;
69837;SDS011;57135;51.992;4.476;2023-09-07T11:03:06;8.99;;;8.99;;
69837;SDS011;57135;51.992;4.476;2023-09-07T11:05:33;8.88;;;8.88;;
69837;SDS011;57135;51.992;4.476;2023-09-07T11:08:02;9.26;;;9.26;;
69837;SDS011;57135;51.992;4.476;2023-09-07T11:10:31;8.31;;;8.31;;
69837;SDS011;57135;51.992;4.476;2023-09-07T11:13:01;8.53;;;8.53;;
69837;SDS011;57135;51.992;4.476;2023-09-07T11:16:14;8.44;;;8.44;;
69837;SDS011;57135;51.992;4.476;2023-09-07T11:18:39;10.43;;;10.42;;
69837;SDS011;57135;51.992;4.476;2023-09-07T11:21:05;9.12;;;9.12;;
69837;SDS011;57135;51.992;4.476;2023-09-07T11:23:32;9.07;;;9.07;;
69837;SDS011;57135;51.992;4.476;2023-09-07T11:26:07;8.83;;;8.83;;
69837;SDS011;57135;51.992;4.476;2023-09-07T11:28:33;8.06;;;8.06;;
69837;SDS011;57135;51.992;4.476;2023-09-07T11:30:59;8.65;;;8.65;;
69837;SDS011;57135;51.992;4.476;2023-09-07T11:33:25;8.80;;;8.80;;
69837;SDS011;57135;51.992;4.476;2023-09-07T11:35:52;8.06;;;8.06;;
69837;SDS011;57135;51.992;4.476;2023-09-07T11:38:20;8.28;;;8.28;;
69837;SDS011;57135;51.992;4.476;2023-09-07T11:40:47;7.92;;;7.92;;
69837;SDS011;57135;51.992;4.476;2023-09-07T11:43:13;8.17;;;8.17;;
69837;SDS011;57135;51.992;4.476;2023-09-07T11:45:42;9.72;;;9.72;;
69837;SDS011;57135;51.992;4.476;2023-09-07T11:48:09;11.97;;;11.97;;
69837;SDS011;57135;51.992;4.476;2023-09-07T11:50:35;7.80;;;7.80;;
69837;SDS011;57135;51.992;4.476;2023-09-07T11:53:03;7.57;;;7.57;;
69837;SDS011;57135;51.992;4.476;2023-09-07T11:55:29;7.97;;;7.97;;
69837;SDS011;57135;51.992;4.476;2023-09-07T11:57:54;7.85;;;7.85;;
69837;SDS011;57135;51.992;4.476;2023-09-07T12:00:20;7.64;;;7.64;;
69837;SDS011;57135;51.992;4.476;2023-09-07T12:02:47;7.72;;;7.72;;
69837;SDS011;57135;51.992;4.476;2023-09-07T12:05:13;7.29;;;7.29;;
69837;SDS011;57135;51.992;4.476;2023-09-07T12:07:41;8.40;;;8.40;;
69837;SDS011;57135;51.992;4.476;2023-09-07T12:10:08;11.63;;;11.63;;
69837;SDS011;57135;51.992;4.476;2023-09-07T12:12:37;7.51;;;7.51;;
69837;SDS011;57135;51.992;4.476;2023-09-07T12:15:03;7.38;;;7.38;;
69837;SDS011;57135;51.992;4.476;2023-09-07T12:17:30;7.84;;;7.84;;
69837;SDS011;57135;51.992;4.476;2023-09-07T12:19:56;7.29;;;7.29;;
69837;SDS011;57135;51.992;4.476;2023-09-07T12:22:21;7.56;;;7.56;;
69837;SDS011;57135;51.992;4.476;2023-09-07T12:24:47;7.37;;;7.37;;
69837;SDS011;57135;51.992;4.476;2023-09-07T12:27:12;7.56;;;7.56;;
69837;SDS011;57135;51.992;4.476;2023-09-07T12:29:38;7.94;;;7.94;;
69837;SDS011;57135;51.992;4.476;2023-09-07T12:32:03;7.48;;;7.48;;
69837;SDS011;57135;51.992;4.476;2023-09-07T12:34:29;7.38;;;7.38;;
69837;SDS011;57135;51.992;4.476;2023-09-07T12:36:54;7.34;;;7.34;;
69837;SDS011;57135;51.992;4.476;2023-09-07T12:39:20;7.50;;;7.50;;
69837;SDS011;57135;51.992;4.476;2023-09-07T12:41:46;7.21;;;7.21;;
69837;SDS011;57135;51.992;4.476;2023-09-07T12:44:11;7.26;;;7.26;;
69837;SDS011;57135;51.992;4.476;2023-09-07T12:46:38;7.16;;;7.16;;
69837;SDS011;57135;51.992;4.476;2023-09-07T12:49:04;7.27;;;7.27;;
69837;SDS011;57135;51.992;4.476;2023-09-07T12:51:29;6.81;;;6.81;;
69837;SDS011;57135;51.992;4.476;2023-09-07T12:53:55;7.11;;;7.11;;
69837;SDS011;57135;51.992;4.476;2023-09-07T12:56:21;7.08;;;7.08;;
69837;SDS011;57135;51.992;4.476;2023-09-07T12:58:46;7.10;;;7.10;;
69837;SDS011;57135;51.992;4.476;2023-09-07T13:01:12;6.90;;;6.90;;
69837;SDS011;57135;51.992;4.476;2023-09-07T13:03:40;7.02;;;7.02;;
69837;SDS011;57135;51.992;4.476;2023-09-07T13:06:06;7.28;;;7.28;;
69837;SDS011;57135;51.992;4.476;2023-09-07T13:08:31;7.11;;;7.11;;
69837;SDS011;57135;51.992;4.476;2023-09-07T13:10:57;6.92;;;6.92;;
69837;SDS011;57135;51.992;4.476;2023-09-07T13:13:23;6.85;;;6.85;;
69837;SDS011;57135;51.992;4.476;2023-09-07T13:15:51;7.05;;;7.05;;
69837;SDS011;57135;51.992;4.476;2023-09-07T13:18:16;7.08;;;7.08;;
69837;SDS011;57135;51.992;4.476;2023-09-07T13:20:42;7.07;;;7.07;;
69837;SDS011;57135;51.992;4.476;2023-09-07T13:23:07;7.32;;;7.32;;
69837;SDS011;57135;51.992;4.476;2023-09-07T13:25:33;7.49;;;7.49;;
69837;SDS011;57135;51.992;4.476;2023-09-07T13:27:58;7.12;;;7.12;;
69837;SDS011;57135;51.992;4.476;2023-09-07T13:30:24;7.59;;;7.59;;
69837;SDS011;57135;51.992;4.476;2023-09-07T13:32:50;7.42;;;7.42;;
69837;SDS011;57135;51.992;4.476;2023-09-07T13:35:16;7.09;;;7.09;;
69837;SDS011;57135;51.992;4.476;2023-09-07T13:37:41;7.46;;;7.46;;
69837;SDS011;57135;51.992;4.476;2023-09-07T13:40:10;7.19;;;7.19;;
69837;SDS011;57135;51.992;4.476;2023-09-07T13:42:36;7.49;;;7.49;;
69837;SDS011;57135;51.992;4.476;2023-09-07T13:45:03;7.24;;;7.24;;
69837;SDS011;57135;51.992;4.476;2023-09-07T13:47:29;6.90;;;6.90;;
69837;SDS011;57135;51.992;4.476;2023-09-07T13:49:55;6.72;;;6.72;;
69837;SDS011;57135;51.992;4.476;2023-09-07T13:52:20;6.96;;;6.96;;
69837;SDS011;57135;51.992;4.476;2023-09-07T13:54:46;6.96;;;6.96;;
69837;SDS011;57135;51.992;4.476;2023-09-07T13:57:11;7.17;;;7.17;;
69837;SDS011;57135;51.992;4.476;2023-09-07T13:59:36;7.22;;;7.22;;
69837;SDS011;57135;51.992;4.476;2023-09-07T14:02:02;6.92;;;6.92;;
69837;SDS011;57135;51.992;4.476;2023-09-07T14:04:27;7.04;;;7.04;;
69837;SDS011;57135;51.992;4.476;2023-09-07T14:06:54;7.12;;;7.12;;
69837;SDS011;57135;51.992;4.476;2023-09-07T14:09:19;7.18;;;7.18;;
69837;SDS011;57135;51.992;4.476;2023-09-07T14:11:46;7.32;;;7.32;;
69837;SDS011;57135;51.992;4.476;2023-09-07T14:14:11;7.23;;;7.23;;
69837;SDS011;57135;51.992;4.476;2023-09-07T14:16:37;6.81;;;6.81;;
69837;SDS011;57135;51.992;4.476;2023-09-07T14:19:02;7.09;;;7.09;;
69837;SDS011;57135;51.992;4.476;2023-09-07T14:21:28;6.45;;;6.45;;
69837;SDS011;57135;51.992;4.476;2023-09-07T14:23:53;6.69;;;6.69;;
69837;SDS011;57135;51.992;4.476;2023-09-07T14:26:19;7.72;;;7.72;;